createdAt,value
2023-05-19T00:01:52.429Z,68.95
2023-05-19T00:04:19.323Z,69.01
2023-05-19T00:06:50.842Z,69.71
2023-05-19T00:09:17.857Z,69.35
2023-05-19T00:11:44.623Z,69.19
2023-05-19T00:14:11.505Z,69.50
2023-05-19T00:16:38.605Z,69.76
2023-05-19T00:19:06.550Z,69.64
2023-05-19T00:21:33.274Z,69.88
2023-05-19T00:23:59.853Z,70.13
2023-05-19T00:26:27.175Z,70.03
2023-05-19T00:28:54.227Z,70.01
2023-05-19T00:31:21.023Z,70.36
2023-05-19T00:33:47.640Z,70.33
2023-05-19T00:36:14.283Z,70.52
2023-05-19T00:38:40.979Z,70.37
2023-05-19T00:41:07.816Z,70.88
2023-05-19T00:43:34.708Z,70.93
2023-05-19T00:46:01.879Z,71.20
2023-05-19T00:48:28.736Z,71.23
2023-05-19T00:51:01.982Z,71.31
2023-05-19T00:53:29.313Z,71.28
2023-05-19T00:55:56.095Z,71.41
2023-05-19T00:58:23.818Z,71.61
2023-05-19T01:00:50.716Z,71.41
2023-05-19T01:03:20.686Z,71.69
2023-05-19T01:05:47.701Z,71.91
2023-05-19T01:08:14.392Z,71.92
2023-05-19T01:10:40.967Z,71.92
2023-05-19T01:13:08.490Z,71.85
2023-05-19T01:15:51.444Z,72.49
2023-05-19T01:18:29.545Z,72.62
2023-05-19T01:21:22.952Z,73.15
2023-05-19T01:24:12.453Z,73.15
2023-05-19T01:27:09.994Z,73.05
2023-05-19T01:29:47.618Z,73.23
2023-05-19T01:32:19.516Z,73.15
2023-05-19T01:34:49.128Z,72.99
2023-05-19T01:37:17.676Z,73.57
2023-05-19T01:39:45.679Z,73.77
2023-05-19T01:42:14.368Z,73.79
2023-05-19T01:44:41.784Z,73.83
2023-05-19T01:47:10.846Z,74.15
2023-05-19T01:49:37.595Z,74.17
2023-05-19T01:52:04.680Z,74.17
2023-05-19T01:54:31.261Z,74.31
2023-05-19T01:57:09.176Z,74.16
2023-05-19T01:59:52.246Z,74.40
2023-05-19T02:02:29.517Z,74.80
2023-05-19T02:05:00.614Z,74.62
2023-05-19T02:07:37.359Z,74.84
2023-05-19T02:10:07.029Z,74.79
2023-05-19T02:12:37.614Z,74.88
2023-05-19T02:15:10.916Z,75.36
2023-05-19T02:17:43.040Z,74.93
2023-05-19T02:20:10.460Z,75.44
2023-05-19T02:22:36.973Z,75.44
2023-05-19T02:25:03.728Z,75.79
2023-05-19T02:27:30.895Z,75.89
2023-05-19T02:29:57.585Z,76.00
2023-05-19T02:32:24.128Z,75.74
2023-05-19T02:34:50.668Z,75.93
2023-05-19T02:37:17.679Z,76.34
2023-05-19T02:39:45.072Z,76.11
2023-05-19T02:42:12.398Z,76.36
2023-05-19T02:44:38.878Z,76.06
2023-05-19T02:47:05.384Z,76.80
2023-05-19T02:49:35.835Z,77.16
2023-05-19T02:52:04.387Z,76.75
2023-05-19T02:54:31.799Z,77.07
2023-05-19T02:56:58.458Z,76.66
2023-05-19T02:59:25.775Z,76.97
2023-05-19T03:01:56.315Z,77.08
2023-05-19T03:04:22.937Z,77.38
2023-05-19T03:06:50.213Z,77.05
2023-05-19T03:09:16.936Z,77.42
2023-05-19T03:11:43.476Z,77.83
2023-05-19T03:14:10.049Z,77.79
2023-05-19T03:16:36.720Z,77.71
2023-05-19T03:19:03.431Z,77.63
2023-05-19T03:21:30.441Z,77.76
2023-05-19T03:23:56.969Z,77.81
2023-05-19T03:26:24.459Z,78.00
2023-05-19T03:28:51.238Z,77.88
2023-05-19T03:31:17.809Z,78.04
2023-05-19T03:33:44.432Z,78.08
2023-05-19T03:36:12.602Z,77.74
2023-05-19T03:38:39.431Z,77.98
2023-05-19T03:41:05.942Z,77.99
2023-05-19T03:43:32.497Z,78.21
2023-05-19T03:45:59.026Z,78.23
2023-05-19T03:48:26.741Z,77.82
2023-05-19T03:50:54.237Z,78.26
2023-05-19T03:53:20.855Z,78.66
2023-05-19T03:55:49.722Z,78.88
2023-05-19T03:58:16.628Z,78.97
2023-05-19T04:00:43.323Z,79.14
2023-05-19T04:03:09.902Z,79.17
2023-05-19T04:05:36.521Z,79.16
2023-05-19T04:08:03.037Z,78.96
2023-05-19T04:10:29.707Z,78.86
2023-05-19T04:12:56.913Z,79.04
2023-05-19T04:15:23.543Z,78.92
2023-05-19T04:17:50.205Z,79.00
2023-05-19T04:20:16.771Z,79.12
2023-05-19T04:22:43.366Z,79.13
2023-05-19T04:25:11.340Z,79.12
2023-05-19T04:27:38.917Z,79.25
2023-05-19T04:30:06.640Z,79.03
2023-05-19T04:32:33.244Z,79.25
2023-05-19T04:34:59.939Z,79.18
2023-05-19T04:37:26.758Z,79.30
2023-05-19T04:39:54.243Z,79.27
2023-05-19T04:42:21.066Z,79.18
2023-05-19T04:44:49.387Z,79.31
2023-05-19T04:47:16.234Z,79.33
2023-05-19T04:49:43.004Z,79.32
2023-05-19T04:52:10.982Z,79.40
2023-05-19T04:54:40.245Z,79.45
2023-05-19T04:57:07.742Z,79.48
2023-05-19T04:59:35.313Z,79.29
2023-05-19T05:02:02.012Z,79.25
2023-05-19T05:04:28.715Z,79.21
2023-05-19T05:06:56.261Z,79.69
2023-05-19T05:09:22.817Z,80.01
2023-05-19T05:11:49.814Z,79.79
2023-05-19T05:14:16.868Z,79.87
2023-05-19T05:16:43.766Z,79.66
2023-05-19T05:19:10.810Z,79.81
2023-05-19T05:21:37.683Z,79.44
2023-05-19T05:24:04.525Z,79.43
2023-05-19T05:26:33.793Z,79.70
2023-05-19T05:29:00.490Z,79.54
2023-05-19T05:31:27.085Z,79.42
2023-05-19T05:33:53.625Z,79.36
2023-05-19T05:36:20.315Z,78.98
2023-05-19T05:38:46.811Z,79.11
2023-05-19T05:41:13.372Z,78.81
2023-05-19T05:43:39.942Z,78.89
2023-05-19T05:46:06.582Z,79.11
2023-05-19T05:48:33.689Z,79.11
2023-05-19T05:51:00.675Z,78.39
2023-05-19T05:53:30.732Z,78.49
2023-05-19T05:55:57.635Z,78.13
2023-05-19T05:58:24.284Z,77.43
2023-05-19T06:00:51.443Z,77.34
2023-05-19T06:03:18.135Z,76.35
2023-05-19T06:05:44.818Z,76.07
2023-05-19T06:08:11.349Z,75.58
2023-05-19T06:10:41.652Z,75.28
2023-05-19T06:13:08.193Z,75.44
2023-05-19T06:15:34.735Z,73.82
2023-05-19T06:18:01.468Z,74.46
2023-05-19T06:20:28.721Z,73.84
2023-05-19T06:22:55.814Z,72.96
2023-05-19T06:25:22.876Z,72.41
2023-05-19T06:27:49.722Z,72.50
2023-05-19T06:30:16.630Z,72.10
2023-05-19T06:32:43.190Z,71.06
2023-05-19T06:35:09.824Z,71.35
2023-05-19T06:37:36.554Z,70.59
2023-05-19T06:40:03.636Z,70.69
2023-05-19T06:42:30.122Z,68.91
2023-05-19T06:44:56.698Z,68.15
2023-05-19T06:47:23.283Z,67.19
2023-05-19T06:49:51.691Z,66.35
2023-05-19T06:52:18.294Z,65.54
2023-05-19T06:54:44.866Z,65.49
2023-05-19T06:57:11.431Z,64.90
2023-05-19T06:59:40.754Z,65.50
2023-05-19T07:02:08.179Z,64.83
2023-05-19T07:04:35.539Z,63.02
2023-05-19T07:07:02.312Z,63.07
2023-05-19T07:09:28.907Z,61.08
2023-05-19T07:11:56.359Z,62.31
2023-05-19T07:14:23.242Z,61.59
2023-05-19T07:16:49.972Z,62.34
2023-05-19T07:19:16.859Z,61.36
2023-05-19T07:21:43.496Z,60.86
2023-05-19T07:24:10.095Z,60.73
2023-05-19T07:26:36.629Z,61.46
2023-05-19T07:29:04.286Z,60.30
2023-05-19T07:31:31.135Z,60.55
2023-05-19T07:33:59.040Z,61.22
2023-05-19T07:36:25.720Z,60.04
2023-05-19T07:38:52.320Z,59.03
2023-05-19T07:41:18.863Z,59.08
2023-05-19T07:43:45.549Z,59.08
2023-05-19T07:46:12.128Z,59.65
2023-05-19T07:48:38.705Z,58.29
2023-05-19T07:51:05.478Z,58.73
2023-05-19T07:53:31.984Z,58.14
2023-05-19T07:55:58.869Z,58.00
2023-05-19T07:58:25.661Z,56.86
2023-05-19T08:00:53.211Z,57.32
2023-05-19T08:03:20.971Z,57.02
2023-05-19T08:05:49.005Z,56.46
2023-05-19T08:08:17.000Z,56.43
2023-05-19T08:10:43.622Z,56.37
2023-05-19T08:13:10.210Z,55.87
2023-05-19T08:15:36.916Z,55.59
2023-05-19T08:18:05.399Z,52.68
2023-05-19T08:20:32.949Z,54.00
2023-05-19T08:22:59.937Z,53.41
2023-05-19T08:25:26.584Z,53.72
2023-05-19T08:27:53.262Z,52.27
2023-05-19T08:30:20.021Z,51.08
2023-05-19T08:32:47.060Z,51.08
2023-05-19T08:35:13.847Z,51.08
2023-05-19T08:37:40.942Z,51.11
2023-05-19T08:40:08.970Z,51.50
2023-05-19T08:42:35.838Z,50.38
2023-05-19T08:45:04.426Z,50.52
2023-05-19T08:47:33.021Z,49.11
2023-05-19T08:50:07.448Z,51.32
2023-05-19T08:52:48.918Z,50.54
2023-05-19T08:55:28.489Z,48.55
2023-05-19T08:57:56.668Z,47.81
2023-05-19T09:00:23.648Z,46.14
2023-05-19T09:03:00.232Z,46.19
2023-05-19T09:05:33.556Z,44.77
2023-05-19T09:08:02.722Z,44.65
2023-05-19T09:10:29.562Z,45.74
2023-05-19T09:12:56.388Z,46.34
2023-05-19T09:15:26.717Z,45.81
2023-05-19T09:18:12.097Z,45.65
2023-05-19T09:20:41.813Z,45.37
2023-05-19T09:23:13.722Z,46.13
2023-05-19T09:25:49.911Z,46.59
2023-05-19T09:28:29.474Z,45.74
2023-05-19T09:31:12.241Z,46.54
2023-05-19T09:33:45.521Z,46.85
2023-05-19T09:36:13.886Z,45.88
2023-05-19T09:38:41.401Z,45.65
2023-05-19T09:41:09.270Z,45.42
2023-05-19T09:43:36.504Z,45.03
2023-05-19T09:46:06.656Z,43.80
2023-05-19T09:48:34.613Z,43.40
2023-05-19T09:51:03.328Z,44.81
2023-05-19T09:53:31.358Z,43.64
2023-05-19T09:55:59.049Z,44.70
2023-05-19T09:58:26.849Z,44.85
2023-05-19T10:00:54.776Z,44.23
2023-05-19T10:03:24.779Z,43.60
2023-05-19T10:05:54.496Z,43.49
2023-05-19T10:08:24.141Z,44.53
2023-05-19T10:10:50.839Z,44.23
2023-05-19T10:13:18.823Z,44.50
2023-05-19T10:18:22.961Z,43.18
2023-05-19T10:20:50.436Z,43.72
2023-05-19T10:23:17.327Z,43.02
2023-05-19T10:25:46.059Z,42.93
2023-05-19T10:28:17.224Z,42.43
2023-05-19T10:30:47.692Z,42.08
2023-05-19T10:33:18.115Z,41.23
2023-05-19T10:36:08.308Z,41.98
2023-05-19T10:38:56.521Z,40.33
2023-05-19T10:41:42.335Z,40.77
2023-05-19T10:44:34.461Z,41.53
2023-05-19T10:47:01.246Z,40.80
2023-05-19T10:49:27.969Z,39.80
2023-05-19T10:51:57.278Z,39.43
2023-05-19T10:54:41.227Z,40.12
2023-05-19T10:57:08.682Z,39.84
2023-05-19T10:59:37.825Z,40.17
2023-05-19T11:02:06.430Z,39.04
2023-05-19T11:04:47.433Z,39.14
2023-05-19T11:07:17.722Z,38.26
2023-05-19T11:09:44.316Z,39.09
2023-05-19T11:12:11.144Z,38.27
2023-05-19T11:14:37.745Z,38.75
2023-05-19T11:17:05.565Z,36.92
2023-05-19T11:19:35.087Z,38.42
2023-05-19T11:22:13.016Z,38.02
2023-05-19T11:24:44.414Z,37.41
2023-05-19T11:27:20.420Z,36.77
2023-05-19T11:29:48.737Z,37.42
2023-05-19T11:32:16.899Z,37.32
2023-05-19T11:34:44.906Z,36.32
2023-05-19T11:37:12.191Z,37.09
2023-05-19T11:39:40.253Z,36.00
2023-05-19T11:42:10.805Z,36.27
2023-05-19T11:44:38.502Z,37.20
2023-05-19T11:47:05.781Z,36.39
2023-05-19T11:49:32.591Z,35.57
2023-05-19T11:52:00.985Z,35.45
2023-05-19T11:54:48.267Z,37.63
2023-05-19T11:57:14.941Z,36.09
2023-05-19T11:59:49.697Z,35.27
2023-05-19T12:02:18.981Z,35.33
2023-05-19T12:04:46.330Z,33.96
2023-05-19T12:07:17.464Z,32.93
2023-05-19T12:09:45.999Z,33.63
2023-05-19T12:12:19.319Z,33.51
2023-05-19T12:14:47.692Z,33.52
2023-05-19T12:17:18.188Z,36.99
2023-05-19T12:19:47.047Z,38.83
2023-05-19T12:22:14.975Z,38.84
2023-05-19T12:24:43.116Z,39.47
2023-05-19T12:27:17.216Z,39.77
2023-05-19T12:29:43.824Z,39.74
2023-05-19T12:32:10.526Z,39.85
2023-05-19T12:34:38.468Z,36.64
2023-05-19T12:37:05.703Z,37.48
2023-05-19T12:39:34.730Z,38.73
2023-05-19T12:42:06.601Z,39.80
2023-05-19T12:44:38.272Z,38.98
2023-05-19T12:47:07.125Z,39.14
2023-05-19T12:49:34.307Z,40.63
2023-05-19T12:52:06.156Z,38.84
2023-05-19T12:54:36.010Z,38.11
2023-05-19T12:57:07.123Z,37.91
2023-05-19T12:59:38.822Z,39.11
2023-05-19T13:02:06.566Z,37.46
2023-05-19T13:04:37.904Z,36.80
2023-05-19T13:07:07.870Z,37.11
2023-05-19T13:09:36.272Z,36.93
2023-05-19T13:12:02.880Z,37.09
2023-05-19T13:14:29.485Z,36.18
2023-05-19T13:16:56.179Z,37.44
2023-05-19T13:19:25.809Z,36.29
2023-05-19T13:21:52.876Z,37.29
2023-05-19T13:24:19.447Z,38.26
2023-05-19T13:26:46.043Z,37.12
2023-05-19T13:29:12.575Z,38.09
2023-05-19T13:31:39.200Z,37.57
2023-05-19T13:34:05.700Z,37.84
2023-05-19T13:36:33.392Z,36.72
2023-05-19T13:39:01.786Z,37.45
2023-05-19T13:41:29.423Z,37.91
2023-05-19T13:43:59.789Z,37.74
2023-05-19T13:46:36.496Z,38.31
2023-05-19T13:49:12.947Z,37.90
2023-05-19T13:51:42.663Z,37.19
2023-05-19T13:54:09.419Z,38.14
2023-05-19T13:56:36.561Z,39.17
2023-05-19T13:59:04.021Z,37.03
2023-05-19T14:01:30.845Z,36.71
2023-05-19T14:03:57.718Z,36.52
2023-05-19T14:06:24.470Z,36.48
2023-05-19T14:08:51.193Z,35.63
2023-05-19T14:11:21.476Z,36.82
2023-05-19T14:13:52.913Z,35.70
2023-05-19T14:16:22.872Z,36.78
2023-05-19T14:18:49.576Z,36.25
2023-05-19T14:21:16.185Z,35.94
2023-05-19T14:23:42.805Z,35.29
2023-05-19T14:26:09.492Z,36.18
2023-05-19T14:28:36.210Z,36.31
2023-05-19T14:31:03.245Z,36.02
2023-05-19T14:33:34.921Z,37.02
2023-05-19T14:36:02.189Z,36.25
2023-05-19T14:38:29.443Z,34.66
2023-05-19T14:40:56.369Z,34.65
2023-05-19T14:43:23.159Z,34.61
2023-05-19T14:45:49.927Z,33.57
2023-05-19T14:48:17.515Z,35.69
2023-05-19T14:50:44.383Z,34.15
2023-05-19T14:53:11.184Z,34.75
2023-05-19T14:55:37.792Z,34.09
2023-05-19T14:58:12.902Z,35.07
2023-05-19T15:00:47.949Z,34.26
2023-05-19T15:03:14.597Z,35.26
2023-05-19T15:05:41.522Z,35.03
2023-05-19T15:08:08.115Z,35.33
2023-05-19T15:10:34.914Z,35.43
2023-05-19T15:13:01.684Z,34.26
2023-05-19T15:15:28.320Z,35.19
2023-05-19T15:17:54.928Z,35.18
2023-05-19T15:20:21.542Z,34.30
2023-05-19T15:22:48.722Z,33.73
2023-05-19T15:25:15.306Z,33.59
2023-05-19T15:27:41.885Z,33.99
2023-05-19T15:30:08.728Z,34.07
2023-05-19T15:32:35.463Z,34.75
2023-05-19T15:35:02.093Z,34.68
2023-05-19T15:37:28.748Z,35.44
2023-05-19T15:39:55.722Z,34.94
2023-05-19T15:42:22.314Z,35.34
2023-05-19T15:44:48.987Z,34.71
2023-05-19T15:47:15.614Z,35.60
2023-05-19T15:49:42.179Z,35.62
2023-05-19T15:52:08.851Z,35.13
2023-05-19T15:54:35.654Z,33.57
2023-05-19T15:57:02.201Z,34.21
2023-05-19T15:59:28.812Z,33.82
2023-05-19T16:01:55.529Z,33.41
2023-05-19T16:04:22.251Z,34.71
2023-05-19T16:06:48.999Z,33.61
2023-05-19T16:09:15.711Z,33.58
2023-05-19T16:11:43.398Z,33.55
2023-05-19T16:14:10.011Z,33.68
2023-05-19T16:16:36.577Z,33.73
2023-05-19T16:19:03.231Z,34.11
2023-05-19T16:21:29.828Z,33.73
2023-05-19T16:23:56.417Z,34.00
2023-05-19T16:26:23.079Z,34.08
2023-05-19T16:28:49.652Z,35.30
2023-05-19T16:31:16.390Z,34.72
2023-05-19T16:33:42.969Z,34.79
2023-05-19T16:36:09.557Z,35.21
2023-05-19T16:38:36.120Z,34.41
2023-05-19T16:41:04.480Z,34.51
2023-05-19T16:43:36.753Z,34.59
2023-05-19T16:46:04.532Z,34.67
2023-05-19T16:48:31.345Z,34.81
2023-05-19T16:50:57.903Z,35.18
2023-05-19T16:53:25.446Z,36.83
2023-05-19T16:55:51.941Z,36.07
2023-05-19T16:58:19.572Z,37.47
2023-05-19T17:00:46.235Z,37.29
2023-05-19T17:03:14.088Z,36.43
2023-05-19T17:05:41.950Z,37.05
2023-05-19T17:08:08.501Z,36.87
2023-05-19T17:10:35.918Z,36.45
2023-05-19T17:13:02.893Z,35.77
2023-05-19T17:15:30.321Z,36.11
2023-05-19T17:17:56.995Z,36.48
2023-05-19T17:20:23.576Z,36.29
2023-05-19T17:22:51.026Z,36.41
2023-05-19T17:25:18.711Z,36.77
2023-05-19T17:27:45.350Z,36.32
2023-05-19T17:30:13.466Z,36.80
2023-05-19T17:32:40.127Z,36.39
2023-05-19T17:35:07.587Z,37.14
2023-05-19T17:37:34.205Z,37.27
2023-05-19T17:40:00.970Z,37.43
2023-05-19T17:42:29.028Z,37.70
2023-05-19T17:44:55.615Z,36.89
2023-05-19T17:47:22.172Z,37.51
2023-05-19T17:49:48.919Z,37.05
2023-05-19T17:52:16.645Z,37.54
2023-05-19T17:54:43.496Z,38.07
2023-05-19T17:57:12.708Z,38.11
2023-05-19T17:59:39.635Z,37.87
2023-05-19T18:02:07.781Z,37.66
2023-05-19T18:04:34.820Z,38.42
2023-05-19T18:07:03.489Z,38.86
2023-05-19T18:09:30.797Z,37.83
2023-05-19T18:11:58.319Z,38.62
2023-05-19T18:14:24.918Z,37.82
2023-05-19T18:16:51.829Z,38.76
2023-05-19T18:19:18.354Z,38.60
2023-05-19T18:21:44.887Z,38.65
2023-05-19T18:24:11.565Z,39.22
2023-05-19T18:26:41.690Z,39.02
2023-05-19T18:29:11.254Z,40.41
2023-05-19T18:31:38.297Z,39.98
2023-05-19T18:34:04.966Z,39.93
2023-05-19T18:36:31.822Z,39.94
2023-05-19T18:39:00.072Z,39.73
2023-05-19T18:41:26.632Z,40.05
2023-05-19T18:43:53.282Z,40.69
2023-05-19T18:46:20.433Z,40.87
2023-05-19T18:48:47.357Z,41.32
2023-05-19T18:51:16.804Z,41.02
2023-05-19T18:53:43.366Z,41.41
2023-05-19T18:56:11.421Z,41.37
2023-05-19T18:58:37.993Z,41.69
2023-05-19T19:01:05.224Z,42.17
2023-05-19T19:03:32.004Z,42.23
2023-05-19T19:05:59.547Z,42.20
2023-05-19T19:08:26.164Z,42.66
2023-05-19T19:10:53.564Z,42.75
2023-05-19T19:13:20.816Z,43.51
2023-05-19T19:15:48.390Z,42.52
2023-05-19T19:18:14.929Z,44.69
2023-05-19T19:20:41.648Z,44.64
2023-05-19T19:23:08.278Z,45.66
2023-05-19T19:25:34.961Z,44.88
2023-05-19T19:28:01.644Z,45.95
2023-05-19T19:30:29.318Z,46.10
2023-05-19T19:32:57.043Z,46.09
2023-05-19T19:35:23.651Z,46.75
2023-05-19T19:37:51.702Z,47.27
2023-05-19T19:40:18.260Z,47.38
2023-05-19T19:42:44.789Z,46.64
2023-05-19T19:45:13.251Z,45.18
2023-05-19T19:47:42.156Z,46.60
2023-05-19T19:50:10.537Z,47.28
2023-05-19T19:52:37.590Z,48.12
2023-05-19T19:55:05.560Z,48.51
2023-05-19T19:57:35.149Z,48.17
2023-05-19T20:00:08.070Z,48.38
2023-05-19T20:02:45.382Z,48.47
2023-05-19T20:05:18.320Z,48.86
2023-05-19T20:07:45.065Z,48.84
2023-05-19T20:10:11.641Z,48.95
2023-05-19T20:12:38.298Z,48.81
2023-05-19T20:15:06.232Z,48.73
2023-05-19T20:17:32.796Z,47.33
2023-05-19T20:20:00.915Z,48.10
2023-05-19T20:22:27.433Z,48.79
2023-05-19T20:24:54.010Z,50.20
2023-05-19T20:27:20.627Z,50.92
2023-05-19T20:29:47.192Z,52.18
2023-05-19T20:32:13.810Z,54.09
2023-05-19T20:34:41.346Z,55.24
2023-05-19T20:37:07.956Z,56.07
2023-05-19T20:39:34.620Z,56.92
2023-05-19T20:42:01.216Z,57.42
2023-05-19T20:44:27.754Z,58.43
2023-05-19T20:46:54.803Z,58.83
2023-05-19T20:49:22.394Z,59.28
2023-05-19T20:51:48.912Z,59.83
2023-05-19T20:54:15.985Z,60.19
2023-05-19T20:56:42.617Z,60.63
2023-05-19T20:59:09.191Z,61.12
2023-05-19T21:01:35.779Z,61.26
2023-05-19T21:04:06.684Z,60.95
2023-05-19T21:06:33.827Z,61.31
2023-05-19T21:09:03.682Z,61.45
2023-05-19T21:11:30.423Z,61.58
2023-05-19T21:13:57.034Z,61.45
2023-05-19T21:16:23.664Z,61.38
2023-05-19T21:18:50.354Z,60.87
2023-05-19T21:21:16.954Z,61.23
2023-05-19T21:23:43.495Z,61.41
2023-05-19T21:26:09.963Z,61.32
2023-05-19T21:28:36.477Z,61.54
2023-05-19T21:31:05.332Z,61.22
2023-05-19T21:33:32.164Z,61.40
2023-05-19T21:36:00.284Z,60.83
2023-05-19T21:38:27.486Z,60.40
2023-05-19T21:40:54.106Z,60.40
2023-05-19T21:43:21.762Z,60.57
2023-05-19T21:45:48.428Z,60.41
2023-05-19T21:48:15.104Z,60.48
2023-05-19T21:50:41.741Z,60.64
2023-05-19T21:53:08.320Z,60.42
2023-05-19T21:55:34.964Z,60.71
2023-05-19T21:58:02.597Z,60.41
2023-05-19T22:00:29.448Z,60.10
2023-05-19T22:02:56.195Z,60.00
2023-05-19T22:05:22.871Z,60.20
2023-05-19T22:07:49.466Z,59.87
2023-05-19T22:10:16.480Z,59.99
2023-05-19T22:12:43.044Z,59.76
2023-05-19T22:15:10.480Z,59.48
2023-05-19T22:17:37.079Z,59.30
2023-05-19T22:20:04.047Z,59.16
2023-05-19T22:22:30.707Z,59.34
2023-05-19T22:24:57.261Z,59.20
2023-05-19T22:27:23.786Z,59.34
2023-05-19T22:29:50.530Z,59.49
2023-05-19T22:32:18.338Z,59.49
2023-05-19T22:34:45.360Z,59.65
2023-05-19T22:37:12.062Z,59.18
2023-05-19T22:39:39.421Z,59.49
2023-05-19T22:42:06.273Z,59.50
2023-05-19T22:44:32.862Z,60.04
2023-05-19T22:46:59.358Z,60.04
2023-05-19T22:49:27.328Z,60.02
2023-05-19T22:51:53.826Z,60.03
2023-05-19T22:54:20.493Z,60.29
2023-05-19T22:56:48.810Z,60.48
2023-05-19T22:59:18.010Z,60.55
2023-05-19T23:01:46.696Z,60.16
2023-05-19T23:04:13.864Z,60.58
2023-05-19T23:06:40.611Z,60.75
2023-05-19T23:09:07.153Z,60.58
2023-05-19T23:11:34.715Z,60.76
2023-05-19T23:14:01.994Z,60.62
2023-05-19T23:16:28.619Z,60.95
2023-05-19T23:18:55.310Z,60.90
2023-05-19T23:21:21.954Z,61.01
2023-05-19T23:23:49.552Z,60.81
2023-05-19T23:26:16.182Z,60.99
2023-05-19T23:28:43.156Z,61.30
2023-05-19T23:31:10.376Z,61.31
2023-05-19T23:33:37.044Z,61.35
2023-05-19T23:36:10.688Z,61.06
2023-05-19T23:38:37.535Z,61.79
2023-05-19T23:41:05.060Z,61.67
2023-05-19T23:43:33.212Z,61.27
2023-05-19T23:46:00.424Z,61.53
2023-05-19T23:48:28.845Z,61.67
2023-05-19T23:50:56.661Z,61.74
2023-05-19T23:53:23.414Z,61.76
2023-05-19T23:55:51.318Z,61.84
2023-05-19T23:58:18.087Z,61.40
